Terminal Aerodrome Forecast
Issued by NWS

Home | Current Version | Previous Version | Text Only | Print | Product List | Glossary On
Versions: 1 2 3 4 5 6 7 8 9 10 11 12
000
FTUS45 KTWC 292335
TAFOLS
TAF
KOLS 292335Z 3000/3024 26012G21KT P6SM SCT100
     FM300200 27007KT P6SM FEW100
     FM300500 VRB03KT P6SM SKC
     FM301500 18012KT P6SM SKC
     FM302000 22022G30KT P6SM SCT090=

USA.gov is the U.S. government's official web portal to all federal, state and local government web resources and services.